world map with MAJ marked

MAJ - Airport

This information may not be accurate or current and is not valid for navigation or flight planning. No warranty of fitness for any purpose is made or implied.

flag of Marshall Islands

Donate via PayPal

Additional information is available on the NEW Great Circle Mapper

Location
City:  Majuro Atoll, Marshall Islands
Name:Amata Kabua International (Marshall Islands International)
ICAO / IATA:PKMJ / MAJ
FAA:MAJ

Details
Type:Airport (Aerodrome, Airfield)
Use:Public/Civil
Latitude:7°03'54"N (7.064972)
Longitude:171°16'19"E (171.272028)
Datum:WGS 1984
Elevation:6 ft (2 m)
Runways:1
Longest:7913 × 150 ft (2412 × 45.5 m)

Time
Timezone:UTC+12 (DST+14)
Local Time:

Weather
METAR:PKMJ  041050Z 05021KT 15SM FEW015 SCT050 BKN300 28/25 A2980 RMK LAST
TAF:PKMJ  041120Z 0412/0512 08015KT P6SM FEW015 SCT050= TAF PKWA 041120Z 0412/0512 06017KT P6SM FEW025

Related Locations
Nearby:
Farthest:ASI: 12056 mi / 19403 km
Ascension Island (Georgetown) [RAF Ascension Island (Wideawake Field, Wide Awake Field)], AC, SH

Find:

   beyond  
but within

Other Information
Maps:
Links:
Sources:

  


 


Great Circle Mapper   Great Circle Mapper
Great Circle Mapper FAQ   Great Circle Mapper FAQ
  Karl's Home Page
KLSē   KLSē Home
   GC on Facebook
Airlines of the World   Airlines of the World
Donate via PayPal


Copyright © 2004-2019, Karl L. Swartz. All rights reserved.
All trademarks mentioned herein belong to their respective owners.

Please see credits for attribution and copyright information.

Karl Swartz <karl@kls2.com>
  Powered by FreeBSD
Valid HTML 4.01!
Labeled with ICRA
hCard Microformat
Geo Microformat